Time;durP1;ratioP1;P1;durP2;ratioP2;P2;SDS_P1;SDS_P2;PMS_P1;PMS_P2;Temp;Humidity;BMP_temperature;BMP_pressure;BME280_temperature;BME280_humidity;BME280_pressure;Samples;Min_cycle;Max_cycle;Signal;HPM_P1;HPM_P2
2022/01/02 00:01:00;;;;;;;12.80;7.28;;;;;;;1.26;70.85;93633.63;2071749;69;20155;-72
2022/01/02 00:03:33;;;;;;;13.38;7.22;;;;;;;1.35;70.42;93631.75;2072439;69;20187;-70
2022/01/02 00:06:01;;;;;;;10.70;6.20;;;;;;;1.41;70.10;93633.13;2067035;69;20180;-69
2022/01/02 00:08:31;;;;;;;13.80;6.07;;;;;;;1.29;70.40;93634.59;2068009;69;20180;-67
2022/01/02 00:10:59;;;;;;;9.60;5.82;;;;;;;1.31;70.41;93632.03;2064674;69;20282;-68
2022/01/02 00:13:35;;;;;;;10.77;6.50;;;;;;;1.27;70.63;93639.91;2066267;69;20183;-69
2022/01/02 00:16:06;;;;;;;11.80;6.80;;;;;;;0.92;72.05;93619.50;2068111;69;20210;-68
2022/01/02 00:18:35;;;;;;;11.43;6.43;;;;;;;1.06;71.20;93606.47;2065123;69;20169;-71
2022/01/02 00:21:03;;;;;;;9.68;5.45;;;;;;;1.24;70.89;93602.16;2067013;69;20144;-70
2022/01/02 00:23:33;;;;;;;10.05;5.15;;;;;;;1.45;70.69;93605.81;2066762;69;20161;-68
2022/01/02 00:26:04;;;;;;;9.38;5.18;;;;;;;1.49;69.81;93602.75;2064998;69;20155;-69
2022/01/02 00:28:35;;;;;;;8.88;5.25;;;;;;;1.01;71.63;93598.97;2067497;69;20232;-68
2022/01/02 00:31:05;;;;;;;11.77;5.70;;;;;;;1.24;71.10;93596.59;2067123;69;20176;-68
2022/01/02 00:33:31;;;;;;;10.45;6.25;;;;;;;1.02;71.35;93594.91;2066359;69;20167;-67
2022/01/02 00:35:56;;;;;;;11.10;6.57;;;;;;;1.09;70.76;93605.38;2066244;69;20149;-68
2022/01/02 00:38:22;;;;;;;12.50;6.47;;;;;;;1.01;70.20;93604.53;2065010;69;20195;-68
2022/01/02 00:40:53;;;;;;;10.15;5.30;;;;;;;1.01;70.19;93605.25;2067903;69;20151;-68
2022/01/02 00:43:54;;;;;;;7.47;4.65;;;;;;;1.26;70.78;93605.13;2067114;69;20153;-70
2022/01/02 00:46:21;;;;;;;7.53;3.78;;;;;;;1.35;70.27;93601.97;2060407;69;20157;-68
2022/01/02 00:48:51;;;;;;;7.53;3.50;;;;;;;1.33;71.45;93590.66;2064454;69;20176;-69
2022/01/02 00:51:47;;;;;;;5.43;2.85;;;;;;;1.46;70.15;93581.59;2062226;69;20155;-68
2022/01/02 00:54:17;;;;;;;7.43;3.72;;;;;;;1.41;70.49;93577.63;2068207;69;20143;-68
2022/01/02 00:56:46;;;;;;;7.43;4.20;;;;;;;0.90;72.25;93571.41;2067410;69;20622;-68
2022/01/02 00:59:21;;;;;;;6.35;4.00;;;;;;;1.24;71.18;93566.84;2065397;69;20659;-68
2022/01/02 01:01:51;;;;;;;5.85;3.60;;;;;;;1.31;70.40;93562.69;2064346;69;20639;-68
2022/01/02 01:04:20;;;;;;;6.05;3.42;;;;;;;1.17;71.30;93555.59;2065984;69;20263;-75
2022/01/02 01:06:53;;;;;;;6.18;3.30;;;;;;;1.34;70.19;93558.09;2067823;69;20210;-68
2022/01/02 01:09:21;;;;;;;4.80;3.00;;;;;;;1.29;70.75;93562.47;2069769;69;20702;-69
2022/01/02 01:11:47;;;;;;;5.63;3.33;;;;;;;1.22;71.51;93566.59;2069708;69;20178;-68
2022/01/02 01:14:12;;;;;;;8.52;4.40;;;;;;;1.12;71.33;93573.09;2069247;69;20484;-68
2022/01/02 01:16:38;;;;;;;7.32;4.10;;;;;;;1.21;70.64;93572.69;2069396;69;20147;-68
2022/01/02 01:19:09;;;;;;;7.45;4.43;;;;;;;1.11;70.95;93575.13;2068780;69;20140;-68
2022/01/02 01:21:35;;;;;;;7.90;3.90;;;;;;;1.07;71.30;93574.66;2069686;69;20152;-69
2022/01/02 01:24:00;;;;;;;5.22;3.17;;;;;;;1.19;71.12;93576.00;2068144;69;20175;-78
2022/01/02 01:26:26;;;;;;;8.23;3.33;;;;;;;1.09;71.25;93568.59;2068028;69;20606;-69
2022/01/02 01:28:52;;;;;;;4.97;3.35;;;;;;;1.21;71.08;93565.09;2069950;69;20133;-70
2022/01/02 01:31:17;;;;;;;6.63;3.85;;;;;;;1.21;70.61;93567.13;2068979;69;20150;-69
2022/01/02 01:33:43;;;;;;;5.93;3.70;;;;;;;1.19;70.33;93572.44;2068271;69;20160;-77
2022/01/02 01:36:09;;;;;;;5.50;3.35;;;;;;;1.19;70.19;93564.91;2067689;69;20149;-76
2022/01/02 01:38:34;;;;;;;6.53;3.50;;;;;;;1.23;70.04;93581.97;2070971;69;20157;-68
2022/01/02 01:41:05;;;;;;;7.13;3.60;;;;;;;1.19;69.67;93583.53;2070473;69;20530;-72
2022/01/02 01:43:53;;;;;;;5.38;3.20;;;;;;;1.24;70.19;93583.47;2068948;69;20140;-77
2022/01/02 01:46:18;;;;;;;4.90;2.90;;;;;;;1.36;69.73;93583.28;2067517;69;20180;-71
2022/01/02 01:48:55;;;;;;;4.88;3.00;;;;;;;1.27;70.32;93574.06;2066112;69;20140;-70
2022/01/02 01:51:22;;;;;;;5.03;3.10;;;;;;;1.35;69.82;93571.44;2067653;69;20145;-70
2022/01/02 01:53:48;;;;;;;5.45;3.03;;;;;;;1.35;69.94;93568.66;2069346;69;20148;-71
2022/01/02 01:56:14;;;;;;;4.63;3.05;;;;;;;1.18;70.47;93568.94;2067660;69;20222;-71
2022/01/02 01:58:41;;;;;;;5.80;2.72;;;;;;;1.22;71.13;93563.81;2068087;69;20191;-72
2022/01/02 02:01:06;;;;;;;4.68;2.70;;;;;;;1.20;70.23;93563.63;2067588;69;20153;-70
2022/01/02 02:03:42;;;;;;;4.85;2.28;;;;;;;1.36;70.88;93563.88;2067961;69;20160;-74
2022/01/02 02:06:09;;;;;;;3.70;2.20;;;;;;;1.16;71.65;93565.22;2067436;69;20148;-69
2022/01/02 02:08:36;;;;;;;4.97;2.85;;;;;;;1.23;70.81;93573.63;2068123;69;20224;-68
2022/01/02 02:11:03;;;;;;;3.90;2.55;;;;;;;1.26;70.42;93572.59;2069462;69;20159;-69
2022/01/02 02:13:30;;;;;;;5.88;2.75;;;;;;;1.19;70.10;93564.91;2068348;69;20191;-68
2022/01/02 02:16:02;;;;;;;3.63;2.30;;;;;;;1.18;70.36;93563.38;2069907;69;20178;-69
2022/01/02 02:18:28;;;;;;;5.15;2.72;;;;;;;1.28;70.29;93560.94;2065275;69;20155;-70
2022/01/02 02:20:54;;;;;;;3.72;2.42;;;;;;;1.29;69.80;93545.09;2069565;69;20198;-70
2022/01/02 02:23:27;;;;;;;5.20;2.60;;;;;;;1.11;71.27;93552.19;2067247;69;20140;-69
2022/01/02 02:25:53;;;;;;;5.90;2.38;;;;;;;1.11;71.67;93536.28;2067458;69;20143;-69
2022/01/02 02:28:20;;;;;;;4.55;2.17;;;;;;;0.85;72.56;93541.75;2068105;69;20307;-69
2022/01/02 02:30:49;;;;;;;5.40;2.33;;;;;;;1.17;71.74;93538.97;2070413;69;20637;-69
2022/01/02 02:33:16;;;;;;;5.38;2.22;;;;;;;1.23;70.66;93534.81;2069464;69;20144;-69
2022/01/02 02:35:44;;;;;;;3.97;2.20;;;;;;;1.24;70.46;93547.41;2068873;69;20247;-69
2022/01/02 02:38:11;;;;;;;3.15;2.05;;;;;;;1.47;69.88;93538.72;2068487;69;20141;-68
2022/01/02 02:40:38;;;;;;;2.70;1.75;;;;;;;1.45;70.50;93547.56;2067007;69;20145;-77
2022/01/02 02:43:19;;;;;;;2.97;2.10;;;;;;;1.30;70.61;93554.91;2066806;69;20191;-76
2022/01/02 02:51:27;;;;;;;4.85;2.25;;;;;;;1.44;70.39;93529.41;2066629;69;20167;-73
2022/01/02 02:53:54;;;;;;;4.63;2.20;;;;;;;1.57;70.22;93517.59;2068270;69;20144;-72
2022/01/02 02:58:49;;;;;;;3.35;1.85;;;;;;;1.94;68.89;93516.63;2067931;69;20223;-71
2022/01/02 03:01:19;;;;;;;4.97;2.33;;;;;;;1.76;69.39;93506.38;2067924;69;20132;-71
2022/01/02 03:03:46;;;;;;;6.22;2.22;;;;;;;1.63;69.61;93507.13;2067062;69;20176;-68
2022/01/02 03:06:14;;;;;;;4.97;2.30;;;;;;;1.67;69.30;93504.03;2069869;69;20160;-78
2022/01/02 03:08:41;;;;;;;5.68;2.72;;;;;;;1.58;69.79;93504.44;2068956;69;20674;-77
2022/01/02 03:11:12;;;;;;;5.40;2.72;;;;;;;1.45;70.03;93511.47;2071269;69;20163;-70
2022/01/02 03:13:38;;;;;;;6.75;2.67;;;;;;;1.49;69.54;93503.59;2068721;69;20213;-69
2022/01/02 03:16:04;;;;;;;5.50;2.63;;;;;;;1.56;69.70;93510.53;2067898;69;20148;-68
2022/01/02 03:18:30;;;;;;;5.05;2.35;;;;;;;1.66;69.48;93494.22;2071663;69;20160;-69
2022/01/02 03:20:56;;;;;;;2.60;1.58;;;;;;;1.87;68.96;93489.47;2068441;69;20213;-71
2022/01/02 03:23:21;;;;;;;3.65;1.60;;;;;;;1.87;69.24;93489.47;2070434;69;20235;-76
2022/01/02 03:25:48;;;;;;;5.80;1.92;;;;;;;1.75;69.08;93486.19;2068884;69;20240;-69
2022/01/02 03:28:13;;;;;;;5.15;2.17;;;;;;;1.46;69.64;93485.22;2068972;69;20144;-75
2022/01/02 03:30:41;;;;;;;7.63;3.00;;;;;;;1.59;69.55;93483.75;2070735;69;20634;-68
2022/01/02 03:33:07;;;;;;;6.63;3.05;;;;;;;1.42;69.78;93490.34;2071199;69;20151;-71
2022/01/02 03:35:33;;;;;;;5.20;2.50;;;;;;;1.59;69.45;93478.94;2070227;69;20655;-71
2022/01/02 03:37:59;;;;;;;4.22;2.35;;;;;;;1.53;70.16;93483.84;2070632;69;20598;-70
2022/01/02 03:40:25;;;;;;;2.75;1.80;;;;;;;1.65;69.27;93482.38;2067993;69;20153;-72
2022/01/02 03:42:51;;;;;;;3.00;1.90;;;;;;;1.61;69.49;93489.53;2067783;69;20536;-73
2022/01/02 03:45:17;;;;;;;5.38;2.72;;;;;;;1.46;69.49;93481.69;2067923;69;20152;-72
2022/01/02 03:47:43;;;;;;;4.25;2.38;;;;;;;1.34;69.84;93491.53;2071096;69;20615;-70
2022/01/02 03:50:11;;;;;;;4.22;2.00;;;;;;;1.51;69.57;93487.16;2068232;69;20168;-69
2022/01/02 03:52:38;;;;;;;3.70;1.90;;;;;;;1.52;69.85;93485.13;2067955;69;20232;-70
2022/01/02 03:55:05;;;;;;;2.78;1.60;;;;;;;1.56;69.85;93474.47;2067801;69;20299;-68
2022/01/02 03:57:30;;;;;;;2.38;1.58;;;;;;;1.75;69.25;93464.00;2070796;69;20168;-69
2022/01/02 03:59:56;;;;;;;1.98;1.50;;;;;;;1.70;69.01;93456.53;2070978;69;20145;-69
2022/01/02 04:02:23;;;;;;;2.22;1.40;;;;;;;1.74;69.00;93445.06;2067960;69;20136;-69
2022/01/02 04:04:49;;;;;;;3.70;2.03;;;;;;;1.55;69.47;93453.53;2069767;69;20164;-69
2022/01/02 04:07:15;;;;;;;4.03;2.35;;;;;;;1.45;69.78;93446.91;2071259;69;20579;-69
2022/01/02 04:09:41;;;;;;;4.35;1.88;;;;;;;1.29;70.88;93448.00;2068528;69;20745;-69
2022/01/02 04:12:08;;;;;;;4.20;1.98;;;;;;;1.42;69.92;93442.41;2068013;69;20145;-71
2022/01/02 04:14:34;;;;;;;3.28;1.80;;;;;;;1.43;70.02;93441.16;2067936;69;20156;-70
2022/01/02 04:17:02;;;;;;;3.35;1.83;;;;;;;1.52;69.69;93440.72;2067994;69;20213;-70
2022/01/02 04:19:28;;;;;;;2.80;1.85;;;;;;;1.43;70.00;93435.59;2068315;69;20149;-69
2022/01/02 04:21:54;;;;;;;2.63;1.58;;;;;;;1.62;70.15;93439.00;2071094;69;20587;-69
2022/01/02 04:24:20;;;;;;;2.97;1.90;;;;;;;1.59;70.01;93431.00;2070104;69;20176;-69
2022/01/02 04:26:46;;;;;;;2.33;1.60;;;;;;;1.77;69.28;93430.88;2067871;69;20164;-69
2022/01/02 04:29:12;;;;;;;2.95;1.58;;;;;;;1.65;69.36;93426.84;2070308;69;20144;-69
2022/01/02 04:31:38;;;;;;;5.32;2.25;;;;;;;1.70;69.42;93422.47;2070882;69;20143;-69
2022/01/02 04:34:04;;;;;;;3.33;2.10;;;;;;;1.45;69.90;93421.94;2068574;69;20152;-69
2022/01/02 04:36:33;;;;;;;13.32;7.95;;;;;;;1.40;70.53;93425.56;2069737;69;20269;-69
2022/01/02 04:38:58;;;;;;;12.25;6.90;;;;;;;1.42;69.82;93426.53;2070509;69;20172;-69
2022/01/02 04:41:24;;;;;;;7.18;4.40;;;;;;;1.27;69.86;93429.09;2069214;69;20148;-69
2022/01/02 04:43:51;;;;;;;8.57;5.55;;;;;;;1.23;70.54;93425.88;2070987;69;20653;-69
2022/01/02 04:46:16;;;;;;;10.60;6.13;;;;;;;1.30;70.07;93427.28;2067882;69;20148;-70
2022/01/02 04:48:42;;;;;;;7.25;4.35;;;;;;;1.43;69.83;93427.28;2069220;69;20160;-70
2022/01/02 04:51:08;;;;;;;7.30;4.13;;;;;;;1.43;69.23;93418.97;2069604;69;20145;-71
2022/01/02 04:53:37;;;;;;;6.22;2.97;;;;;;;1.52;70.03;93419.28;2070903;69;20140;-70
2022/01/02 04:56:03;;;;;;;4.25;2.15;;;;;;;1.65;69.55;93418.53;2070586;69;20295;-73
2022/01/02 04:58:29;;;;;;;6.05;2.40;;;;;;;1.68;68.90;93405.59;2068788;69;20129;-72
2022/01/02 05:00:55;;;;;;;6.05;3.00;;;;;;;1.70;68.64;93403.03;2070034;69;20143;-68
2022/01/02 05:03:21;;;;;;;5.85;3.10;;;;;;;1.44;69.53;93395.47;2069210;69;20709;-68
2022/01/02 05:05:47;;;;;;;4.15;2.40;;;;;;;1.46;69.58;93388.09;2072671;69;20144;-68
2022/01/02 05:08:13;;;;;;;4.20;2.47;;;;;;;1.39;70.02;93390.78;2072263;69;20148;-70
2022/01/02 05:10:39;;;;;;;4.30;2.20;;;;;;;1.41;69.83;93388.97;2072117;69;20163;-75
2022/01/02 05:13:05;;;;;;;4.80;2.47;;;;;;;1.48;69.68;93399.41;2076454;69;20150;-69
2022/01/02 05:15:32;;;;;;;6.22;2.92;;;;;;;1.37;69.60;93391.31;2073007;69;20129;-68
2022/01/02 05:17:58;;;;;;;4.60;2.50;;;;;;;1.43;69.87;93388.44;2076400;69;20143;-71
2022/01/02 05:20:24;;;;;;;3.95;2.15;;;;;;;1.51;69.56;93389.25;2076241;69;20171;-69
2022/01/02 05:22:49;;;;;;;4.63;2.38;;;;;;;1.42;69.98;93390.47;2072895;69;20540;-69
2022/01/02 05:25:15;;;;;;;3.95;2.13;;;;;;;1.47;69.53;93395.16;2075586;69;20601;-71
2022/01/02 05:27:42;;;;;;;4.35;2.33;;;;;;;1.38;69.90;93398.38;2072981;69;20136;-67
2022/01/02 05:30:09;;;;;;;3.53;2.00;;;;;;;1.45;69.71;93388.63;2076290;69;20208;-70
2022/01/02 05:32:35;;;;;;;4.05;2.05;;;;;;;1.46;69.59;93395.69;2072677;69;20737;-69
2022/01/02 05:35:02;;;;;;;5.53;2.42;;;;;;;1.21;70.28;93387.59;2076160;69;20219;-69
2022/01/02 05:37:27;;;;;;;4.07;2.17;;;;;;;1.33;70.06;93388.13;2072733;69;21612;-69
2022/01/02 05:39:53;;;;;;;5.35;2.30;;;;;;;1.34;69.46;93384.06;2076551;69;20155;-68
2022/01/02 05:42:19;;;;;;;3.35;2.00;;;;;;;1.21;69.98;93392.38;2072993;69;20511;-68
2022/01/02 05:44:45;;;;;;;3.58;2.50;;;;;;;1.22;70.16;93389.06;2073034;69;20152;-68
2022/01/02 05:47:11;;;;;;;8.88;4.25;;;;;;;1.39;70.12;93390.78;2073273;69;20147;-68
2022/01/02 05:49:38;;;;;;;22.13;14.10;;;;;;;1.38;69.95;93392.81;2072955;69;20564;-68
2022/01/02 05:52:03;;;;;;;30.92;19.25;;;;;;;1.32;70.35;93394.94;2076332;69;20224;-69
2022/01/02 05:54:29;;;;;;;24.55;14.32;;;;;;;1.44;70.18;93395.47;2073248;69;20151;-69
2022/01/02 05:56:55;;;;;;;12.18;7.32;;;;;;;1.24;70.23;93403.16;2076225;69;20628;-69
2022/01/02 05:59:21;;;;;;;10.77;6.25;;;;;;;1.31;69.86;93404.53;2072474;69;20219;-70
2022/01/02 06:01:47;;;;;;;8.02;5.50;;;;;;;1.38;69.59;93394.84;2075890;69;20590;-69
2022/01/02 06:04:13;;;;;;;9.25;5.25;;;;;;;1.36;69.29;93395.38;2072069;69;20665;-70
2022/01/02 06:06:39;;;;;;;9.95;6.18;;;;;;;1.29;69.48;93384.94;2072632;69;20181;-68
2022/01/02 06:09:06;;;;;;;12.77;7.10;;;;;;;1.12;69.79;93390.03;2072463;69;20205;-68
2022/01/02 06:11:32;;;;;;;40.42;19.30;;;;;;;0.93;70.42;93381.81;2073156;69;20211;-68
2022/01/02 06:13:58;;;;;;;26.27;13.68;;;;;;;0.96;70.05;93389.81;2069702;69;20661;-68
2022/01/02 06:16:25;;;;;;;29.95;15.75;;;;;;;1.18;70.20;93391.41;2072775;69;20217;-68
2022/01/02 06:18:53;;;;;;;20.83;10.95;;;;;;;1.08;69.75;93387.59;2072784;69;20282;-68
2022/01/02 06:21:18;;;;;;;16.55;9.25;;;;;;;1.05;70.22;93390.66;2076121;69;20143;-68
2022/01/02 06:23:44;;;;;;;17.58;9.15;;;;;;;1.13;69.69;93389.50;2072320;69;20678;-70
2022/01/02 06:26:09;;;;;;;14.68;7.95;;;;;;;1.20;69.65;93393.69;2073776;69;20152;-70
2022/01/02 06:28:35;;;;;;;12.38;7.03;;;;;;;1.36;69.55;93389.06;2070094;69;20148;-70
2022/01/02 06:31:01;;;;;;;15.77;7.07;;;;;;;1.16;69.94;93382.16;2068347;69;20187;-71
2022/01/02 06:33:27;;;;;;;11.20;5.68;;;;;;;0.98;71.48;93378.94;2071405;69;20148;-72
2022/01/02 06:35:53;;;;;;;8.48;4.97;;;;;;;1.16;70.45;93377.34;2075571;69;20217;-69
2022/01/02 06:38:21;;;;;;;9.32;4.90;;;;;;;1.16;69.78;93371.06;2073637;69;20238;-69
2022/01/02 06:40:51;;;;;;;10.48;5.20;;;;;;;1.15;70.10;93369.56;2071489;69;20270;-67
2022/01/02 06:43:19;;;;;;;7.07;3.72;;;;;;;1.23;70.17;93381.50;2071856;69;20128;-68
2022/01/02 06:45:45;;;;;;;7.55;4.70;;;;;;;1.05;70.54;93376.81;2071901;69;20278;-73
2022/01/02 06:48:11;;;;;;;9.15;5.50;;;;;;;0.94;70.93;93377.75;2075288;69;20275;-68
2022/01/02 06:50:39;;;;;;;8.77;4.70;;;;;;;1.05;70.46;93374.03;2070713;69;20140;-68
2022/01/02 06:53:05;;;;;;;8.18;4.60;;;;;;;0.99;70.93;93372.09;2068751;69;20144;-68
2022/01/02 06:55:31;;;;;;;8.23;5.20;;;;;;;0.99;71.01;93368.59;2070442;69;20270;-69
2022/01/02 06:57:57;;;;;;;10.40;6.60;;;;;;;0.96;72.52;93375.97;2071768;69;20234;-70
2022/01/02 07:00:23;;;;;;;12.82;7.50;;;;;;;0.95;72.27;93379.25;2072792;69;20151;-73
2022/01/02 07:02:49;;;;;;;10.57;6.95;;;;;;;1.12;70.99;93378.94;2076017;69;20144;-72
2022/01/02 07:05:15;;;;;;;11.10;6.20;;;;;;;1.14;70.68;93374.34;2071769;69;20218;-73
2022/01/02 07:07:44;;;;;;;15.80;8.68;;;;;;;1.06;70.89;93373.50;2076140;69;20148;-70
2022/01/02 07:10:12;;;;;;;21.77;11.38;;;;;;;1.07;70.94;93375.00;2072492;69;20529;-69
2022/01/02 07:12:38;;;;;;;22.73;11.82;;;;;;;1.08;71.04;93373.72;2076624;69;20636;-69
2022/01/02 07:15:07;;;;;;;27.65;13.43;;;;;;;1.13;71.21;93380.44;2076237;69;20179;-69
2022/01/02 07:17:33;;;;;;;25.90;14.35;;;;;;;1.27;70.47;93393.03;2074551;69;20175;-74
2022/01/02 07:19:59;;;;;;;29.30;16.45;;;;;;;1.41;70.35;93391.00;2076270;69;20623;-69
2022/01/02 07:22:25;;;;;;;27.40;14.25;;;;;;;1.39;69.97;93401.88;2075543;69;20148;-69
2022/01/02 07:24:51;;;;;;;25.35;12.20;;;;;;;1.39;69.79;93401.88;2076188;69;20188;-70
2022/01/02 07:27:21;;;;;;;24.98;12.98;;;;;;;1.11;70.90;93403.16;2076676;69;20162;-69
2022/01/02 07:29:48;;;;;;;26.13;13.80;;;;;;;1.05;71.11;93399.72;2075587;69;20164;-69
2022/01/02 07:32:15;;;;;;;33.30;17.92;;;;;;;1.15;71.01;93406.38;2075436;69;20143;-71
2022/01/02 07:34:42;;;;;;;38.53;19.60;;;;;;;1.19;70.88;93398.47;2075866;69;20206;-72
2022/01/02 07:37:09;;;;;;;30.25;16.10;;;;;;;1.25;70.75;93399.13;2076213;69;20151;-74
2022/01/02 07:39:34;;;;;;;34.63;18.00;;;;;;;1.22;70.57;93386.31;2076214;69;20566;-69
2022/01/02 07:42:00;;;;;;;37.80;20.45;;;;;;;1.23;70.65;93373.91;2076280;69;20218;-71
2022/01/02 07:44:33;;;;;;;18.05;9.30;;;;;;;1.41;70.85;93377.84;2072380;69;20143;-70
2022/01/02 07:46:59;;;;;;;22.30;10.90;;;;;;;1.45;70.62;93377.53;2075089;69;20586;-74
2022/01/02 07:49:25;;;;;;;35.38;17.60;;;;;;;1.19;71.07;93384.59;2076211;69;20155;-70
2022/01/02 07:51:51;;;;;;;34.13;17.05;;;;;;;1.32;70.66;93389.38;2069579;69;20550;-70
2022/01/02 07:54:16;;;;;;;38.50;19.92;;;;;;;1.32;70.60;93391.41;2076175;69;20601;-73
2022/01/02 07:56:42;;;;;;;34.90;18.75;;;;;;;1.34;70.67;93384.06;2074454;69;20698;-68
2022/01/02 07:59:08;;;;;;;39.33;20.10;;;;;;;1.46;70.48;93379.03;2073183;69;20195;-68
2022/01/02 08:01:34;;;;;;;22.10;12.23;;;;;;;1.52;70.56;93383.19;2072867;69;20137;-68
2022/01/02 08:04:00;;;;;;;28.67;13.93;;;;;;;1.63;70.71;93384.25;2070683;69;20191;-71
2022/01/02 08:06:26;;;;;;;19.52;10.05;;;;;;;1.73;70.22;93374.94;2065787;69;20576;-71
2022/01/02 08:08:52;;;;;;;30.95;16.25;;;;;;;1.59;70.85;93381.03;2066257;69;20161;-68
2022/01/02 08:11:17;;;;;;;27.65;14.52;;;;;;;1.73;70.51;93379.72;2066271;69;20156;-69
2022/01/02 08:13:44;;;;;;;21.25;12.02;;;;;;;1.82;70.82;93378.53;2065966;69;20164;-72
2022/01/02 08:16:11;;;;;;;19.60;10.82;;;;;;;1.90;70.12;93384.94;2066135;69;20137;-72
2022/01/02 08:18:37;;;;;;;26.30;14.40;;;;;;;1.73;71.46;93388.81;2066145;69;20539;-69
2022/01/02 08:21:02;;;;;;;29.73;15.10;;;;;;;1.82;71.56;93387.63;2066187;69;20166;-68
2022/01/02 08:23:28;;;;;;;44.08;20.92;;;;;;;2.03;70.40;93384.91;2065233;69;20149;-70
2022/01/02 08:25:53;;;;;;;77.07;35.95;;;;;;;2.06;70.80;93389.38;2067470;69;20157;-74
2022/01/02 08:28:19;;;;;;;36.28;16.40;;;;;;;2.21;70.49;93372.88;2065127;69;20144;-72
2022/01/02 08:30:47;;;;;;;28.52;12.48;;;;;;;2.31;69.92;93375.19;2066337;69;20140;-70
2022/01/02 08:33:14;;;;;;;37.08;16.88;;;;;;;2.50;69.72;93361.84;2066748;69;20222;-70
2022/01/02 08:35:41;;;;;;;22.05;10.20;;;;;;;2.70;69.50;93358.31;2065016;69;20152;-70
2022/01/02 08:38:06;;;;;;;31.27;14.82;;;;;;;2.77;68.69;93360.41;2068328;69;20144;-73
2022/01/02 08:40:32;;;;;;;37.65;20.58;;;;;;;2.93;68.54;93349.38;2066978;69;20164;-73
2022/01/02 08:42:58;;;;;;;32.40;17.35;;;;;;;2.98;68.08;93354.81;2067272;69;20203;-73
2022/01/02 08:45:23;;;;;;;30.42;16.50;;;;;;;2.99;68.64;93355.56;2066294;69;20670;-74
2022/01/02 08:47:49;;;;;;;34.05;17.90;;;;;;;2.96;68.78;93353.84;2064612;69;20184;-72
2022/01/02 08:50:15;;;;;;;33.97;17.55;;;;;;;3.14;69.32;93352.13;2065727;69;20222;-72
2022/01/02 08:52:40;;;;;;;40.13;18.45;;;;;;;3.29;68.11;93347.38;2068050;69;20155;-72
2022/01/02 08:55:07;;;;;;;30.58;16.98;;;;;;;3.44;68.50;93346.75;2068061;69;20147;-74
2022/01/02 08:57:32;;;;;;;38.28;18.70;;;;;;;3.76;68.02;93343.53;2068107;69;20543;-71
2022/01/02 08:59:58;;;;;;;38.25;17.67;;;;;;;4.17;70.09;93332.69;2068171;69;20638;-70
2022/01/02 09:02:23;;;;;;;25.00;13.30;;;;;;;4.54;68.44;93331.28;2068083;69;20184;-72
2022/01/02 09:04:49;;;;;;;26.38;13.95;;;;;;;4.81;67.29;93332.41;2072063;69;20641;-70
2022/01/02 09:07:14;;;;;;;27.60;13.85;;;;;;;5.27;67.70;93332.34;2074763;69;20621;-70
2022/01/02 09:09:40;;;;;;;13.35;6.93;;;;;;;5.52;65.99;93324.09;2074877;69;20660;-71
2022/01/02 09:12:07;;;;;;;22.58;11.90;;;;;;;5.67;64.25;93333.72;2074780;69;20235;-69
2022/01/02 09:14:33;;;;;;;24.00;12.43;;;;;;;5.92;64.42;93331.81;2074788;69;20201;-70
2022/01/02 09:16:58;;;;;;;19.88;11.18;;;;;;;6.27;64.44;93323.59;2074750;69;20187;-71
2022/01/02 09:19:24;;;;;;;20.23;10.20;;;;;;;6.33;64.55;93322.09;2074664;69;20159;-70
2022/01/02 09:21:50;;;;;;;23.33;12.00;;;;;;;6.33;63.38;93318.56;2071410;69;20155;-72
2022/01/02 09:24:15;;;;;;;25.02;13.02;;;;;;;6.15;63.32;93303.00;2074799;69;20144;-71
2022/01/02 09:26:41;;;;;;;26.55;17.33;;;;;;;6.23;63.03;93306.47;2074775;69;20188;-71
2022/01/02 09:29:07;;;;;;;25.15;15.38;;;;;;;6.24;62.30;93310.78;2074755;69;20183;-70
2022/01/02 09:31:32;;;;;;;17.35;9.95;;;;;;;6.34;60.39;93312.38;2074707;69;20635;-70
2022/01/02 09:33:58;;;;;;;14.45;8.68;;;;;;;6.24;60.20;93314.31;2074785;69;20606;-70
2022/01/02 09:36:23;;;;;;;19.00;10.05;;;;;;;6.27;61.74;93313.16;2074816;69;20182;-70
2022/01/02 09:38:50;;;;;;;16.73;10.50;;;;;;;6.25;60.98;93317.84;2074869;69;20189;-71
2022/01/02 09:41:19;;;;;;;19.80;10.55;;;;;;;6.23;61.32;93307.25;2074713;69;20176;-69
2022/01/02 09:43:47;;;;;;;15.52;8.48;;;;;;;6.40;62.35;93306.56;2074721;69;20160;-69
2022/01/02 09:46:16;;;;;;;17.10;8.77;;;;;;;6.42;61.10;93314.41;2074721;69;20163;-73
2022/01/02 09:48:44;;;;;;;31.45;17.00;;;;;;;6.34;62.02;93311.63;2074712;69;20698;-69
2022/01/02 09:51:10;;;;;;;19.02;11.75;;;;;;;6.53;63.13;93308.34;2074502;69;20132;-69
2022/01/02 09:53:35;;;;;;;21.40;12.25;;;;;;;6.72;62.11;93305.78;2074598;69;20232;-69
2022/01/02 09:56:01;;;;;;;21.60;12.82;;;;;;;6.85;61.01;93299.88;2074608;69;20174;-69
2022/01/02 09:58:27;;;;;;;26.70;13.88;;;;;;;6.85;61.63;93313.88;2074834;69;20151;-69
2022/01/02 10:00:55;;;;;;;26.40;13.70;;;;;;;7.06;61.51;93307.94;2071388;69;20144;-70
2022/01/02 10:03:21;;;;;;;22.55;13.90;;;;;;;7.44;61.41;93306.81;2074634;69;20164;-70
2022/01/02 10:05:56;;;;;;;30.17;15.90;;;;;;;7.79;60.86;93292.78;2074688;69;20178;-69
2022/01/02 10:08:43;;;;;;;37.08;19.20;;;;;;;7.58;60.41;93288.34;2074705;69;20144;-69
2022/01/02 10:11:20;;;;;;;32.53;17.70;;;;;;;8.31;59.99;93295.47;2074595;69;20197;-69
2022/01/02 10:13:55;;;;;;;30.45;15.60;;;;;;;8.49;59.33;93299.75;2074819;69;20160;-69
2022/01/02 10:16:26;;;;;;;21.77;11.10;;;;;;;8.61;57.41;93303.50;2074490;69;20140;-70
2022/01/02 10:18:53;;;;;;;21.92;10.65;;;;;;;9.02;57.09;93291.81;2074667;69;20168;-70
2022/01/02 10:21:36;;;;;;;17.08;10.15;;;;;;;9.21;56.64;93300.31;2074517;69;20181;-70
2022/01/02 10:24:27;;;;;;;10.30;6.40;;;;;;;8.90;54.85;93286.75;2074653;69;20652;-70
2022/01/02 10:27:19;;;;;;;15.68;8.10;;;;;;;9.78;56.29;93270.75;2074574;69;20209;-70
2022/01/02 10:30:03;;;;;;;18.48;9.70;;;;;;;10.36;54.83;93264.34;2074528;69;20185;-73
2022/01/02 10:32:36;;;;;;;17.85;10.45;;;;;;;10.74;53.88;93260.66;2074707;69;20181;-73
2022/01/02 10:35:19;;;;;;;13.30;7.85;;;;;;;11.27;52.65;93263.47;2074530;69;20262;-72
2022/01/02 10:37:52;;;;;;;13.30;7.43;;;;;;;11.64;52.02;93255.41;2074593;69;20156;-74
2022/01/02 10:40:29;;;;;;;;;;;;;;;11.38;51.35;93255.13;2074812;69;20159;-74
2022/01/02 10:42:56;;;;;;;12.20;7.53;;;;;;;11.77;50.31;93245.63;2074618;69;20047;-74
2022/01/02 10:45:31;;;;;;;12.43;7.60;;;;;;;12.17;50.03;93245.44;2074575;69;20159;-77
2022/01/02 10:47:57;;;;;;;11.82;6.88;;;;;;;13.03;49.96;93239.41;2071219;69;20137;-75
2022/01/02 10:50:22;;;;;;;8.98;5.90;;;;;;;13.47;47.04;93247.03;2074643;69;20497;-76
2022/01/02 10:52:48;;;;;;;9.05;5.32;;;;;;;13.18;46.54;93249.47;2074466;69;20263;-73
2022/01/02 10:55:13;;;;;;;8.98;6.00;;;;;;;12.96;46.27;93252.44;2074624;69;20235;-74
2022/01/02 10:57:42;;;;;;;11.18;5.90;;;;;;;13.80;45.76;93231.19;2074585;69;20166;-74
2022/01/02 11:00:10;;;;;;;10.48;5.43;;;;;;;14.12;45.92;93235.13;2074586;69;20213;-75
2022/01/02 11:02:36;;;;;;;8.13;5.90;;;;;;;14.57;43.38;93229.88;2074523;69;20515;-74
2022/01/02 11:05:03;;;;;;;10.15;5.88;;;;;;;15.97;43.28;93222.19;2074344;69;20176;-74
2022/01/02 11:07:42;;;;;;;6.70;3.92;;;;;;;16.82;40.22;93216.28;2074570;69;20148;-73
2022/01/02 11:10:10;;;;;;;6.65;4.28;;;;;;;16.77;40.64;93198.31;2074530;69;20152;-74
2022/01/02 11:12:38;;;;;;;7.05;4.90;;;;;;;16.83;38.30;93205.66;2074551;69;20175;-73
2022/01/02 11:15:06;;;;;;;7.15;4.35;;;;;;;14.53;42.34;93206.97;2074522;69;20140;-74
2022/01/02 11:17:35;;;;;;;5.07;3.78;;;;;;;14.75;40.87;93196.09;2074543;69;20179;-71
2022/01/02 11:20:04;;;;;;;5.75;3.97;;;;;;;14.61;39.86;93176.22;2074430;69;20889;-70
2022/01/02 11:22:54;;;;;;;6.55;4.10;;;;;;;13.72;41.55;93172.03;2074501;69;20156;-71
2022/01/02 11:25:49;;;;;;;11.30;5.57;;;;;;;13.26;43.19;93176.47;2074811;69;20152;-71
2022/01/02 11:28:44;;;;;;;6.30;4.82;;;;;;;13.40;43.03;93156.78;2075271;69;20625;-70
2022/01/02 11:31:10;;;;;;;6.53;4.70;;;;;;;12.69;43.56;93161.78;2075504;69;20195;-70
2022/01/02 11:33:41;;;;;;;9.73;5.10;;;;;;;11.99;46.79;93161.72;2075350;69;20248;-71
2022/01/02 11:36:45;;;;;;;7.88;5.13;;;;;;;11.90;46.47;93154.81;2075260;69;20136;-71
2022/01/02 11:39:11;;;;;;;6.78;4.47;;;;;;;12.00;46.51;93157.53;2057790;69;20606;-73
2022/01/02 11:41:39;;;;;;;8.00;5.43;;;;;;;10.88;48.40;93151.03;2057748;69;20180;-72
2022/01/02 11:44:08;;;;;;;12.15;5.65;;;;;;;11.51;47.20;93151.59;2057762;69;20152;-70
2022/01/02 11:46:42;;;;;;;10.27;5.90;;;;;;;11.84;46.49;93149.53;2057761;69;20251;-71